Aérodrome :
LOGIN :

S'inscrire | Disclaimer

   EN    FR    IT 

 










Légende :    VFR   VFR Marginal   IFR   IFR Intensif   IFR Très Intensif
Visi : 
Plafond : 
>= 8 km
>= 3000ft
5 à 8 km
1000 à 3000 ft
1500m à 5 km
500 à 1000 ft
800 à 1500m
200 à 500 ft
< 800m
< 200 ft
Symboles :   Orages  Brouillard  Fortes neiges  Fortes précipitations  Vent > 20 kt
SIGMETs :   Divers  Orages  Givrage  Turbulence  Onde Orograph.  Cendres Volcan.






- Altitude de l'aérodrome : 84 ft


LFBC - Cazaux

DERNIER METAR :
  • 121300Z AUTO 29010KT 260V320 9999 FEW027/// SCT068/// ///TCU 14/09 Q1010 TEMPO 31015G25KT SHRA

METARs EXPIRÉS :
  • 121230Z AUTO 27005KT 230V310 9999 FEW029/// BKN062/// ///CB 12/10 Q1011 TEMPO 31015G25KT SHRA
  • 121200Z AUTO 27012KT 240V300 9999 -RA FEW020/// BKN028/// BKN037/// ///CB 13/09 Q1011 TEMPO 31015G25KT SHRA
  • 121130Z AUTO 28009KT 240V310 9999 FEW029/// SCT043/// BKN052/// ///CB 15/11 Q1011 TEMPO 31015G25KT SHRA
  • 121100Z AUTO 27004KT 240V300 9999 FEW019/// SCT056/// ///TCU 12/11 Q1012 TEMPO 31015G25KT SHRA
  • 121030Z AUTO 30010KT 190V340 9999 3800 FEW019 SCT027 BKN037 13/09 Q1012 TEMPO 31015G25KT SHRA BKN025TCU

TAF TAF LFBC
Valide du 12 à 09h jusqu'au 13 à 09h UTC


120800Z 1209/1309 28005KT 9999 SCT030 SCT050
TEMPO 1209/1223 31015G25KT SHRA BKN025TCU
PROB40
TEMPO 1304/1309 0800 BCFG VV///



MET'MAP, la Météo Aéronautique d'un coup d'oeil ! - Copyright ORBIFLY Décembre 2007 - Disclaimer

ORBIFLY MET'MAP TEAM :

Programmation & Développement : Alexandra Zaïnal
Conception & Développement : Baudouin d'Aumeries
Co-Programmation & Développement : Marc-Olivier Méhu
Soutien technique & logistique : Manuel Goepfert

Contact : metmap@orbifly.com




SOURCES & CREDITS :

   NOAA